No particular awareness of the weather is required.    There are no Weather-warnings

My Other Sites:

SYKIA HOMEWEATHERSTATIONsikeaweather.alinos.eu

SYKIA METEOTEMPLATEsykiameteo.alinos.eu

alinos.eualinos.eu



Nearby METAR Reports

   
LGEL - Elefsis (hel-Afb, Greece
Distance from station: E 77 km
Updated: 20-10-2018 10:20
Clear  
Clear  
   Wind: Calm
Wind: Calm
Temperature: 20°C
Dew Point: 14°C
Humidity: 69%
Barometer: 1018 hPa
Visibility: More than 10 km
Cloud details: Clear
LGEL 200720Z 00000KT CAVOK 20/14 Q1018
LGRX - Araxos (civ/Afb), Greece
Distance from station: W 110 km
Updated: 20-10-2018 10:20
Few Clouds  
Few Clouds  
   Wind: NE 18.5 km/h
Wind: NE 18.5 km/h
Temperature: 21°C
Dew Point: 16°C
Humidity: 73%
Barometer: 1017 hPa
Clouds: Few Clouds
Visibility: More than 10 km
Cloud details: Few Clouds 2000 ft
LGRX 200720Z 04010KT 9999 FEW020 21/16 Q1017
LGAV - Athens/Elef-Ven, Greece
Distance from station: E 113 km
Updated: 20-10-2018 10:20
Few Clouds  
Few Clouds  
   Wind: varies 1.9 km/h
Wind: varies 1.9 km/h
Temperature: 19°C
Dew Point: 14°C
Humidity: 73%
Barometer: 1018 hPa
Clouds: Few Clouds
Visibility: More than 10 km
Cloud details: Few Clouds 3000 ft
LGAV 200720Z VRB01KT 9999 FEW030 19/14 Q1018 NOSIG
LGAD - Andravida (civ/A, Greece
Distance from station: W 124 km
Updated: 20-10-2018 10:20
Few Clouds  
Few Clouds  
   Wind: Calm
Wind: Calm
Temperature: 20°C
Dew Point: 14°C
Humidity: 69%
Barometer: 1016 hPa
Clouds: Few Clouds
Visibility: More than 10 km
Cloud details: Few Clouds 2000 ft
LGAD 200720Z 00000KT 9999 FEW020 20/14 Q1016
LGKL - Kalamata (hel-Af, Greece
Distance from station: SSW 124 km
Updated: 20-10-2018 10:20
Clear  
Clear  
   Wind: Calm
Wind: Calm
Temperature: 23°C
Dew Point: 12°C
Humidity: 50%
Barometer: 1016 hPa
Visibility: More than 10 km
Cloud details: Clear
LGKL 200720Z 00000KT CAVOK 23/12 Q1016
LGBL - Nea Anchialos, Greece
Distance from station: N 129 km
Updated: 20-10-2018 10:20
Clear  
Clear  
   Wind: Calm
Wind: Calm
Temperature: 19°C
Dew Point: 14°C
Humidity: 73%
Barometer: 1018 hPa
Visibility: More than 10 km
Cloud details: Clear
LGBL 200720Z 00000KT CAVOK 19/14 Q1018

Script developed by  Saratoga-weather.org Adapted for the template by  Weerstation Leuven

You find our weather info also at:

European Weather Network

Weather Underground

AWEKAS

Citizen Weather Observer Program (CWOP)

HAMweather, WeatherForYou, PWS Weather

UK Metoffice

Equipment we use:

Weather-station
Davis Wireless Vantage Pro2

Davis Wireless Vantage Pro2